sensor_id;sensor_type;location;lat;lon;timestamp;P1;durP1;ratioP1;P2;durP2;ratioP2
44588;SDS011;30298;52.562;13.414;2023-03-01T00:00:34;49.43;;;26.30;;
44588;SDS011;30298;52.562;13.414;2023-03-01T00:03:00;47.60;;;26.60;;
44588;SDS011;30298;52.562;13.414;2023-03-01T00:05:25;53.20;;;25.87;;
44588;SDS011;30298;52.562;13.414;2023-03-01T00:07:52;54.13;;;25.40;;
44588;SDS011;30298;52.562;13.414;2023-03-01T00:10:17;52.30;;;26.25;;
44588;SDS011;30298;52.562;13.414;2023-03-01T00:12:43;47.33;;;24.83;;
44588;SDS011;30298;52.562;13.414;2023-03-01T00:15:08;56.77;;;27.50;;
44588;SDS011;30298;52.562;13.414;2023-03-01T00:17:33;55.40;;;27.67;;
44588;SDS011;30298;52.562;13.414;2023-03-01T00:19:59;53.63;;;26.37;;
44588;SDS011;30298;52.562;13.414;2023-03-01T00:22:24;53.30;;;26.03;;
44588;SDS011;30298;52.562;13.414;2023-03-01T00:24:51;46.92;;;24.40;;
44588;SDS011;30298;52.562;13.414;2023-03-01T00:27:16;51.43;;;24.53;;
44588;SDS011;30298;52.562;13.414;2023-03-01T00:29:41;52.47;;;25.27;;
44588;SDS011;30298;52.562;13.414;2023-03-01T00:32:07;46.47;;;25.33;;
44588;SDS011;30298;52.562;13.414;2023-03-01T00:34:32;48.10;;;24.77;;
44588;SDS011;30298;52.562;13.414;2023-03-01T00:36:57;48.33;;;25.37;;
44588;SDS011;30298;52.562;13.414;2023-03-01T00:39:29;49.10;;;26.10;;
44588;SDS011;30298;52.562;13.414;2023-03-01T00:41:55;50.90;;;25.77;;
44588;SDS011;30298;52.562;13.414;2023-03-01T00:44:21;50.78;;;25.38;;
44588;SDS011;30298;52.562;13.414;2023-03-01T00:46:46;51.03;;;25.53;;
44588;SDS011;30298;52.562;13.414;2023-03-01T00:49:12;53.70;;;27.07;;
44588;SDS011;30298;52.562;13.414;2023-03-01T00:51:37;58.40;;;27.60;;
44588;SDS011;30298;52.562;13.414;2023-03-01T00:56:29;45.00;;;24.42;;
44588;SDS011;30298;52.562;13.414;2023-03-01T00:58:55;46.25;;;26.25;;
44588;SDS011;30298;52.562;13.414;2023-03-01T01:01:21;49.23;;;25.47;;
44588;SDS011;30298;52.562;13.414;2023-03-01T01:03:52;45.65;;;24.65;;
44588;SDS011;30298;52.562;13.414;2023-03-01T01:06:19;47.55;;;23.85;;
44588;SDS011;30298;52.562;13.414;2023-03-01T01:08:44;47.95;;;25.88;;
44588;SDS011;30298;52.562;13.414;2023-03-01T01:11:10;41.80;;;23.30;;
44588;SDS011;30298;52.562;13.414;2023-03-01T01:13:36;46.13;;;23.17;;
44588;SDS011;30298;52.562;13.414;2023-03-01T01:16:02;43.17;;;23.13;;
44588;SDS011;30298;52.562;13.414;2023-03-01T01:18:27;40.13;;;22.83;;
44588;SDS011;30298;52.562;13.414;2023-03-01T01:20:52;50.50;;;25.27;;
44588;SDS011;30298;52.562;13.414;2023-03-01T01:23:18;43.10;;;23.47;;
44588;SDS011;30298;52.562;13.414;2023-03-01T01:25:43;40.23;;;22.30;;
44588;SDS011;30298;52.562;13.414;2023-03-01T01:28:08;45.37;;;21.70;;
44588;SDS011;30298;52.562;13.414;2023-03-01T01:30:34;48.57;;;24.40;;
44588;SDS011;30298;52.562;13.414;2023-03-01T01:32:59;53.60;;;25.63;;
44588;SDS011;30298;52.562;13.414;2023-03-01T01:35:24;47.67;;;24.67;;
44588;SDS011;30298;52.562;13.414;2023-03-01T01:37:49;42.30;;;23.77;;
44588;SDS011;30298;52.562;13.414;2023-03-01T01:40:15;42.23;;;22.90;;
44588;SDS011;30298;52.562;13.414;2023-03-01T01:42:40;41.33;;;23.33;;
44588;SDS011;30298;52.562;13.414;2023-03-01T01:47:50;46.53;;;22.25;;
44588;SDS011;30298;52.562;13.414;2023-03-01T01:50:16;41.50;;;21.70;;
44588;SDS011;30298;52.562;13.414;2023-03-01T01:52:42;40.92;;;22.70;;
44588;SDS011;30298;52.562;13.414;2023-03-01T01:55:11;40.77;;;21.20;;
44588;SDS011;30298;52.562;13.414;2023-03-01T01:57:43;38.30;;;21.10;;
44588;SDS011;30298;52.562;13.414;2023-03-01T02:00:12;37.05;;;20.20;;
44588;SDS011;30298;52.562;13.414;2023-03-01T02:02:37;35.65;;;19.42;;
44588;SDS011;30298;52.562;13.414;2023-03-01T02:05:09;38.13;;;19.77;;
44588;SDS011;30298;52.562;13.414;2023-03-01T02:07:36;41.30;;;19.90;;
44588;SDS011;30298;52.562;13.414;2023-03-01T02:10:03;28.73;;;16.65;;
44588;SDS011;30298;52.562;13.414;2023-03-01T02:12:28;29.20;;;17.00;;
44588;SDS011;30298;52.562;13.414;2023-03-01T02:14:54;32.25;;;16.90;;
44588;SDS011;30298;52.562;13.414;2023-03-01T02:17:19;30.80;;;17.03;;
44588;SDS011;30298;52.562;13.414;2023-03-01T02:22:24;31.55;;;16.35;;
44588;SDS011;30298;52.562;13.414;2023-03-01T02:27:30;35.10;;;18.52;;
44588;SDS011;30298;52.562;13.414;2023-03-01T02:29:58;31.77;;;18.33;;
44588;SDS011;30298;52.562;13.414;2023-03-01T02:32:23;33.63;;;17.73;;
44588;SDS011;30298;52.562;13.414;2023-03-01T02:34:51;34.25;;;19.45;;
44588;SDS011;30298;52.562;13.414;2023-03-01T02:37:17;35.10;;;19.15;;
44588;SDS011;30298;52.562;13.414;2023-03-01T02:39:49;33.38;;;18.67;;
44588;SDS011;30298;52.562;13.414;2023-03-01T02:42:18;42.78;;;21.02;;
44588;SDS011;30298;52.562;13.414;2023-03-01T02:44:44;35.38;;;20.88;;
44588;SDS011;30298;52.562;13.414;2023-03-01T02:47:10;37.30;;;20.43;;
44588;SDS011;30298;52.562;13.414;2023-03-01T02:49:35;37.23;;;20.03;;
44588;SDS011;30298;52.562;13.414;2023-03-01T02:52:07;41.33;;;20.63;;
44588;SDS011;30298;52.562;13.414;2023-03-01T02:54:40;38.83;;;20.35;;
44588;SDS011;30298;52.562;13.414;2023-03-01T02:57:06;35.88;;;18.95;;
44588;SDS011;30298;52.562;13.414;2023-03-01T02:59:32;37.53;;;18.58;;
44588;SDS011;30298;52.562;13.414;2023-03-01T03:02:07;35.13;;;17.90;;
44588;SDS011;30298;52.562;13.414;2023-03-01T03:04:33;30.65;;;17.88;;
44588;SDS011;30298;52.562;13.414;2023-03-01T03:06:58;37.33;;;19.30;;
44588;SDS011;30298;52.562;13.414;2023-03-01T03:09:23;37.50;;;19.00;;
44588;SDS011;30298;52.562;13.414;2023-03-01T03:11:49;41.10;;;19.40;;
44588;SDS011;30298;52.562;13.414;2023-03-01T03:14:15;36.85;;;19.48;;
44588;SDS011;30298;52.562;13.414;2023-03-01T03:16:41;33.28;;;17.17;;
44588;SDS011;30298;52.562;13.414;2023-03-01T03:19:07;35.78;;;18.02;;
44588;SDS011;30298;52.562;13.414;2023-03-01T03:21:33;35.38;;;17.73;;
44588;SDS011;30298;52.562;13.414;2023-03-01T03:23:58;32.58;;;17.95;;
44588;SDS011;30298;52.562;13.414;2023-03-01T03:26:23;35.03;;;17.77;;
44588;SDS011;30298;52.562;13.414;2023-03-01T03:28:49;34.23;;;17.77;;
44588;SDS011;30298;52.562;13.414;2023-03-01T03:31:14;31.30;;;17.90;;
44588;SDS011;30298;52.562;13.414;2023-03-01T03:33:39;35.33;;;17.80;;
44588;SDS011;30298;52.562;13.414;2023-03-01T03:36:05;33.13;;;17.57;;
44588;SDS011;30298;52.562;13.414;2023-03-01T03:38:30;30.08;;;17.30;;
44588;SDS011;30298;52.562;13.414;2023-03-01T03:41:02;32.73;;;18.50;;
44588;SDS011;30298;52.562;13.414;2023-03-01T03:43:29;32.35;;;16.98;;
44588;SDS011;30298;52.562;13.414;2023-03-01T03:45:54;32.22;;;17.85;;
44588;SDS011;30298;52.562;13.414;2023-03-01T03:48:22;33.33;;;16.70;;
44588;SDS011;30298;52.562;13.414;2023-03-01T03:50:48;33.92;;;17.13;;
44588;SDS011;30298;52.562;13.414;2023-03-01T03:53:14;34.55;;;17.80;;
44588;SDS011;30298;52.562;13.414;2023-03-01T03:55:39;33.70;;;15.95;;
44588;SDS011;30298;52.562;13.414;2023-03-01T03:58:06;34.40;;;18.10;;
44588;SDS011;30298;52.562;13.414;2023-03-01T04:00:33;31.55;;;17.45;;
44588;SDS011;30298;52.562;13.414;2023-03-01T04:02:58;30.65;;;17.85;;
44588;SDS011;30298;52.562;13.414;2023-03-01T04:05:23;32.87;;;16.50;;
44588;SDS011;30298;52.562;13.414;2023-03-01T04:07:49;27.33;;;15.52;;
44588;SDS011;30298;52.562;13.414;2023-03-01T04:12:51;30.13;;;15.45;;
44588;SDS011;30298;52.562;13.414;2023-03-01T04:15:17;46.45;;;20.77;;
44588;SDS011;30298;52.562;13.414;2023-03-01T04:17:44;30.20;;;15.65;;
44588;SDS011;30298;52.562;13.414;2023-03-01T04:20:13;30.73;;;16.27;;
44588;SDS011;30298;52.562;13.414;2023-03-01T04:22:39;30.80;;;15.98;;
44588;SDS011;30298;52.562;13.414;2023-03-01T04:25:05;30.70;;;16.98;;
44588;SDS011;30298;52.562;13.414;2023-03-01T04:27:34;30.77;;;15.95;;
44588;SDS011;30298;52.562;13.414;2023-03-01T04:30:00;32.58;;;17.65;;
44588;SDS011;30298;52.562;13.414;2023-03-01T04:32:25;28.13;;;15.18;;
44588;SDS011;30298;52.562;13.414;2023-03-01T04:34:50;35.23;;;17.37;;
44588;SDS011;30298;52.562;13.414;2023-03-01T04:37:16;33.67;;;17.37;;
44588;SDS011;30298;52.562;13.414;2023-03-01T04:39:41;30.33;;;16.13;;
44588;SDS011;30298;52.562;13.414;2023-03-01T04:42:11;37.17;;;17.02;;
44588;SDS011;30298;52.562;13.414;2023-03-01T04:44:36;34.60;;;16.85;;
44588;SDS011;30298;52.562;13.414;2023-03-01T04:47:01;31.57;;;16.93;;
44588;SDS011;30298;52.562;13.414;2023-03-01T04:49:26;32.60;;;17.43;;
44588;SDS011;30298;52.562;13.414;2023-03-01T04:51:52;31.17;;;15.90;;
44588;SDS011;30298;52.562;13.414;2023-03-01T04:54:17;34.53;;;15.27;;
44588;SDS011;30298;52.562;13.414;2023-03-01T04:56:42;35.97;;;16.87;;
44588;SDS011;30298;52.562;13.414;2023-03-01T04:59:08;33.43;;;17.17;;
44588;SDS011;30298;52.562;13.414;2023-03-01T05:01:35;31.90;;;17.30;;
44588;SDS011;30298;52.562;13.414;2023-03-01T05:04:00;33.85;;;17.38;;
44588;SDS011;30298;52.562;13.414;2023-03-01T05:06:28;34.38;;;16.95;;
44588;SDS011;30298;52.562;13.414;2023-03-01T05:08:53;37.08;;;18.60;;
44588;SDS011;30298;52.562;13.414;2023-03-01T05:11:18;31.93;;;16.60;;
44588;SDS011;30298;52.562;13.414;2023-03-01T05:13:44;28.90;;;15.80;;
44588;SDS011;30298;52.562;13.414;2023-03-01T05:16:09;31.63;;;16.60;;
44588;SDS011;30298;52.562;13.414;2023-03-01T05:18:36;33.65;;;16.50;;
44588;SDS011;30298;52.562;13.414;2023-03-01T05:21:03;30.08;;;14.35;;
44588;SDS011;30298;52.562;13.414;2023-03-01T05:23:30;35.97;;;16.13;;
44588;SDS011;30298;52.562;13.414;2023-03-01T05:25:57;31.33;;;16.33;;
44588;SDS011;30298;52.562;13.414;2023-03-01T05:28:22;30.55;;;16.67;;
44588;SDS011;30298;52.562;13.414;2023-03-01T05:30:48;35.23;;;16.40;;
44588;SDS011;30298;52.562;13.414;2023-03-01T05:33:16;33.30;;;16.42;;
44588;SDS011;30298;52.562;13.414;2023-03-01T05:35:42;26.92;;;15.32;;
44588;SDS011;30298;52.562;13.414;2023-03-01T05:38:08;30.63;;;18.38;;
44588;SDS011;30298;52.562;13.414;2023-03-01T05:42:59;31.80;;;15.73;;
44588;SDS011;30298;52.562;13.414;2023-03-01T05:45:26;26.88;;;15.35;;
44588;SDS011;30298;52.562;13.414;2023-03-01T05:50:18;25.88;;;14.73;;
44588;SDS011;30298;52.562;13.414;2023-03-01T05:52:50;29.40;;;14.90;;
44588;SDS011;30298;52.562;13.414;2023-03-01T05:55:16;34.00;;;16.50;;
44588;SDS011;30298;52.562;13.414;2023-03-01T05:57:41;33.63;;;17.65;;
44588;SDS011;30298;52.562;13.414;2023-03-01T06:00:08;29.10;;;15.97;;
44588;SDS011;30298;52.562;13.414;2023-03-01T06:02:33;32.78;;;18.02;;
44588;SDS011;30298;52.562;13.414;2023-03-01T06:05:18;29.50;;;15.65;;
44588;SDS011;30298;52.562;13.414;2023-03-01T06:08:04;32.80;;;17.63;;
44588;SDS011;30298;52.562;13.414;2023-03-01T06:10:29;38.27;;;17.50;;
44588;SDS011;30298;52.562;13.414;2023-03-01T06:12:54;32.77;;;17.07;;
44588;SDS011;30298;52.562;13.414;2023-03-01T06:15:20;33.70;;;17.57;;
44588;SDS011;30298;52.562;13.414;2023-03-01T06:17:45;41.95;;;19.45;;
44588;SDS011;30298;52.562;13.414;2023-03-01T06:22:36;38.03;;;18.67;;
44588;SDS011;30298;52.562;13.414;2023-03-01T06:25:02;40.40;;;19.40;;
44588;SDS011;30298;52.562;13.414;2023-03-01T06:27:27;39.85;;;20.05;;
44588;SDS011;30298;52.562;13.414;2023-03-01T06:29:52;44.40;;;21.20;;
44588;SDS011;30298;52.562;13.414;2023-03-01T06:32:18;32.20;;;17.63;;
44588;SDS011;30298;52.562;13.414;2023-03-01T06:34:43;34.67;;;17.43;;
44588;SDS011;30298;52.562;13.414;2023-03-01T06:37:09;37.97;;;18.10;;
44588;SDS011;30298;52.562;13.414;2023-03-01T06:39:34;38.30;;;17.95;;
44588;SDS011;30298;52.562;13.414;2023-03-01T06:41:59;36.40;;;18.10;;
44588;SDS011;30298;52.562;13.414;2023-03-01T06:44:25;34.33;;;17.73;;
44588;SDS011;30298;52.562;13.414;2023-03-01T06:46:50;42.13;;;18.92;;
44588;SDS011;30298;52.562;13.414;2023-03-01T06:49:16;39.10;;;19.50;;
44588;SDS011;30298;52.562;13.414;2023-03-01T06:51:42;39.47;;;19.98;;
44588;SDS011;30298;52.562;13.414;2023-03-01T06:54:08;43.55;;;18.83;;
44588;SDS011;30298;52.562;13.414;2023-03-01T06:56:33;37.27;;;18.30;;
44588;SDS011;30298;52.562;13.414;2023-03-01T06:58:59;39.05;;;19.23;;
44588;SDS011;30298;52.562;13.414;2023-03-01T07:01:24;36.47;;;19.90;;
44588;SDS011;30298;52.562;13.414;2023-03-01T07:03:49;34.47;;;19.27;;
44588;SDS011;30298;52.562;13.414;2023-03-01T07:06:15;33.43;;;17.30;;
44588;SDS011;30298;52.562;13.414;2023-03-01T07:08:40;33.93;;;18.73;;
44588;SDS011;30298;52.562;13.414;2023-03-01T07:11:05;33.27;;;18.00;;
44588;SDS011;30298;52.562;13.414;2023-03-01T07:13:31;32.13;;;18.87;;
44588;SDS011;30298;52.562;13.414;2023-03-01T07:15:56;35.08;;;17.20;;
44588;SDS011;30298;52.562;13.414;2023-03-01T07:18:22;31.23;;;16.33;;
44588;SDS011;30298;52.562;13.414;2023-03-01T07:20:47;32.70;;;17.20;;
44588;SDS011;30298;52.562;13.414;2023-03-01T07:23:12;34.87;;;18.37;;
44588;SDS011;30298;52.562;13.414;2023-03-01T07:25:38;38.40;;;17.77;;
44588;SDS011;30298;52.562;13.414;2023-03-01T07:28:03;32.77;;;17.13;;
44588;SDS011;30298;52.562;13.414;2023-03-01T07:30:28;29.83;;;16.83;;
44588;SDS011;30298;52.562;13.414;2023-03-01T07:32:54;32.90;;;17.43;;
44588;SDS011;30298;52.562;13.414;2023-03-01T07:35:20;32.20;;;16.55;;
44588;SDS011;30298;52.562;13.414;2023-03-01T07:37:45;31.83;;;17.08;;
44588;SDS011;30298;52.562;13.414;2023-03-01T07:40:11;25.57;;;15.53;;
44588;SDS011;30298;52.562;13.414;2023-03-01T07:42:37;31.05;;;17.40;;
44588;SDS011;30298;52.562;13.414;2023-03-01T07:45:03;33.17;;;17.23;;
44588;SDS011;30298;52.562;13.414;2023-03-01T07:47:28;29.88;;;17.02;;
44588;SDS011;30298;52.562;13.414;2023-03-01T07:49:53;31.93;;;17.40;;
44588;SDS011;30298;52.562;13.414;2023-03-01T07:52:19;33.87;;;18.03;;
44588;SDS011;30298;52.562;13.414;2023-03-01T07:54:44;30.90;;;18.00;;
44588;SDS011;30298;52.562;13.414;2023-03-01T07:57:12;29.27;;;16.40;;
44588;SDS011;30298;52.562;13.414;2023-03-01T07:59:38;30.25;;;15.23;;
44588;SDS011;30298;52.562;13.414;2023-03-01T08:02:03;27.20;;;13.43;;
44588;SDS011;30298;52.562;13.414;2023-03-01T08:04:28;23.73;;;14.03;;
44588;SDS011;30298;52.562;13.414;2023-03-01T08:06:54;21.97;;;13.20;;
44588;SDS011;30298;52.562;13.414;2023-03-01T08:09:19;24.33;;;13.48;;
44588;SDS011;30298;52.562;13.414;2023-03-01T08:11:45;26.87;;;13.50;;
44588;SDS011;30298;52.562;13.414;2023-03-01T08:14:10;23.23;;;13.40;;
44588;SDS011;30298;52.562;13.414;2023-03-01T08:16:35;24.57;;;13.10;;
44588;SDS011;30298;52.562;13.414;2023-03-01T08:19:05;30.23;;;14.67;;
44588;SDS011;30298;52.562;13.414;2023-03-01T08:21:30;21.15;;;12.98;;
44588;SDS011;30298;52.562;13.414;2023-03-01T08:23:55;21.02;;;13.20;;
44588;SDS011;30298;52.562;13.414;2023-03-01T08:26:21;25.27;;;13.57;;
44588;SDS011;30298;52.562;13.414;2023-03-01T08:28:47;20.60;;;11.53;;
44588;SDS011;30298;52.562;13.414;2023-03-01T08:31:13;25.15;;;11.02;;
44588;SDS011;30298;52.562;13.414;2023-03-01T08:36:04;18.15;;;10.35;;
44588;SDS011;30298;52.562;13.414;2023-03-01T08:38:32;18.38;;;10.85;;
44588;SDS011;30298;52.562;13.414;2023-03-01T08:40:59;16.30;;;7.90;;
44588;SDS011;30298;52.562;13.414;2023-03-01T08:43:24;22.25;;;12.77;;
44588;SDS011;30298;52.562;13.414;2023-03-01T08:45:49;24.33;;;12.60;;
44588;SDS011;30298;52.562;13.414;2023-03-01T08:48:16;15.57;;;9.27;;
44588;SDS011;30298;52.562;13.414;2023-03-01T08:50:41;17.00;;;9.10;;
44588;SDS011;30298;52.562;13.414;2023-03-01T08:53:07;14.90;;;8.70;;
44588;SDS011;30298;52.562;13.414;2023-03-01T08:55:32;23.30;;;9.60;;
44588;SDS011;30298;52.562;13.414;2023-03-01T08:57:57;15.63;;;7.60;;
44588;SDS011;30298;52.562;13.414;2023-03-01T09:02:49;17.42;;;7.40;;
44588;SDS011;30298;52.562;13.414;2023-03-01T09:05:15;13.63;;;8.17;;
44588;SDS011;30298;52.562;13.414;2023-03-01T09:07:40;15.13;;;7.17;;
44588;SDS011;30298;52.562;13.414;2023-03-01T09:10:06;13.90;;;7.33;;
44588;SDS011;30298;52.562;13.414;2023-03-01T09:12:31;13.95;;;7.47;;
44588;SDS011;30298;52.562;13.414;2023-03-01T09:14:56;16.37;;;8.50;;
44588;SDS011;30298;52.562;13.414;2023-03-01T09:17:22;11.93;;;6.50;;
44588;SDS011;30298;52.562;13.414;2023-03-01T09:19:47;10.63;;;6.03;;
44588;SDS011;30298;52.562;13.414;2023-03-01T09:22:13;11.88;;;7.25;;
44588;SDS011;30298;52.562;13.414;2023-03-01T09:24:38;13.07;;;6.87;;
44588;SDS011;30298;52.562;13.414;2023-03-01T09:27:05;15.88;;;8.30;;
44588;SDS011;30298;52.562;13.414;2023-03-01T09:29:33;14.45;;;7.78;;
44588;SDS011;30298;52.562;13.414;2023-03-01T09:31:59;11.50;;;7.30;;
44588;SDS011;30298;52.562;13.414;2023-03-01T09:34:25;10.63;;;6.90;;
44588;SDS011;30298;52.562;13.414;2023-03-01T09:36:51;14.55;;;6.90;;
44588;SDS011;30298;52.562;13.414;2023-03-01T09:39:16;14.27;;;6.37;;
44588;SDS011;30298;52.562;13.414;2023-03-01T09:44:26;11.57;;;5.25;;
44588;SDS011;30298;52.562;13.414;2023-03-01T09:46:52;8.68;;;5.13;;
44588;SDS011;30298;52.562;13.414;2023-03-01T09:49:19;10.60;;;4.67;;
44588;SDS011;30298;52.562;13.414;2023-03-01T09:52:28;7.97;;;4.97;;
44588;SDS011;30298;52.562;13.414;2023-03-01T09:54:33;8.27;;;4.70;;
44588;SDS011;30298;52.562;13.414;2023-03-01T09:57:06;7.50;;;4.53;;
44588;SDS011;30298;52.562;13.414;2023-03-01T09:59:51;15.63;;;4.78;;
44588;SDS011;30298;52.562;13.414;2023-03-01T10:02:22;9.43;;;4.65;;
44588;SDS011;30298;52.562;13.414;2023-03-01T10:04:49;7.07;;;3.90;;
44588;SDS011;30298;52.562;13.414;2023-03-01T10:09:41;6.73;;;4.00;;
44588;SDS011;30298;52.562;13.414;2023-03-01T10:12:12;7.60;;;3.70;;
44588;SDS011;30298;52.562;13.414;2023-03-01T10:14:39;11.63;;;3.97;;
44588;SDS011;30298;52.562;13.414;2023-03-01T10:17:10;14.90;;;4.70;;
44588;SDS011;30298;52.562;13.414;2023-03-01T10:19:44;8.75;;;3.78;;
44588;SDS011;30298;52.562;13.414;2023-03-01T10:22:13;13.63;;;6.07;;
44588;SDS011;30298;52.562;13.414;2023-03-01T10:24:40;8.38;;;4.57;;
44588;SDS011;30298;52.562;13.414;2023-03-01T10:27:14;11.03;;;3.60;;
44588;SDS011;30298;52.562;13.414;2023-03-01T10:32:08;8.13;;;4.07;;
44588;SDS011;30298;52.562;13.414;2023-03-01T10:34:35;6.60;;;3.97;;
44588;SDS011;30298;52.562;13.414;2023-03-01T10:37:04;8.77;;;4.22;;
44588;SDS011;30298;52.562;13.414;2023-03-01T10:39:33;4.88;;;3.50;;
44588;SDS011;30298;52.562;13.414;2023-03-01T10:42:03;7.53;;;4.00;;
44588;SDS011;30298;52.562;13.414;2023-03-01T10:44:42;9.40;;;3.63;;
44588;SDS011;30298;52.562;13.414;2023-03-01T10:47:12;9.38;;;4.05;;
44588;SDS011;30298;52.562;13.414;2023-03-01T10:49:38;6.63;;;4.28;;
44588;SDS011;30298;52.562;13.414;2023-03-01T10:58:06;6.78;;;3.60;;
44588;SDS011;30298;52.562;13.414;2023-03-01T11:00:32;11.57;;;4.55;;
44588;SDS011;30298;52.562;13.414;2023-03-01T11:05:23;5.03;;;3.50;;
44588;SDS011;30298;52.562;13.414;2023-03-01T11:07:50;7.78;;;3.72;;
44588;SDS011;30298;52.562;13.414;2023-03-01T11:10:17;7.68;;;3.83;;
44588;SDS011;30298;52.562;13.414;2023-03-01T11:15:08;10.00;;;3.90;;
44588;SDS011;30298;52.562;13.414;2023-03-01T11:17:44;6.80;;;3.97;;
44588;SDS011;30298;52.562;13.414;2023-03-01T11:22:38;5.85;;;3.80;;
44588;SDS011;30298;52.562;13.414;2023-03-01T11:25:11;5.90;;;3.85;;
44588;SDS011;30298;52.562;13.414;2023-03-01T11:27:40;5.82;;;3.90;;
44588;SDS011;30298;52.562;13.414;2023-03-01T11:32:42;7.57;;;3.97;;
44588;SDS011;30298;52.562;13.414;2023-03-01T11:35:14;7.97;;;4.93;;
44588;SDS011;30298;52.562;13.414;2023-03-01T11:38:26;7.65;;;4.68;;
44588;SDS011;30298;52.562;13.414;2023-03-01T11:40:31;6.47;;;3.50;;
44588;SDS011;30298;52.562;13.414;2023-03-01T11:43:02;11.88;;;4.57;;
44588;SDS011;30298;52.562;13.414;2023-03-01T11:51:09;6.22;;;3.22;;
44588;SDS011;30298;52.562;13.414;2023-03-01T11:53:56;14.18;;;3.42;;
44588;SDS011;30298;52.562;13.414;2023-03-01T11:59:03;15.00;;;3.83;;
44588;SDS011;30298;52.562;13.414;2023-03-01T12:06:40;6.05;;;3.70;;
44588;SDS011;30298;52.562;13.414;2023-03-01T12:09:17;5.75;;;3.63;;
44588;SDS011;30298;52.562;13.414;2023-03-01T12:14:31;4.63;;;2.95;;
44588;SDS011;30298;52.562;13.414;2023-03-01T12:35:16;7.85;;;4.00;;
44588;SDS011;30298;52.562;13.414;2023-03-01T12:37:54;7.47;;;3.53;;
44588;SDS011;30298;52.562;13.414;2023-03-01T12:40:23;7.45;;;3.35;;
44588;SDS011;30298;52.562;13.414;2023-03-01T12:43:12;10.02;;;3.60;;
44588;SDS011;30298;52.562;13.414;2023-03-01T12:50:57;4.72;;;3.20;;
44588;SDS011;30298;52.562;13.414;2023-03-01T12:53:25;5.32;;;2.95;;
44588;SDS011;30298;52.562;13.414;2023-03-01T12:55:51;6.40;;;3.10;;
44588;SDS011;30298;52.562;13.414;2023-03-01T13:01:16;4.35;;;3.17;;
44588;SDS011;30298;52.562;13.414;2023-03-01T13:06:32;5.43;;;3.65;;
44588;SDS011;30298;52.562;13.414;2023-03-01T13:11:46;4.20;;;3.00;;
44588;SDS011;30298;52.562;13.414;2023-03-01T13:16:48;4.85;;;3.20;;
44588;SDS011;30298;52.562;13.414;2023-03-01T13:21:42;3.05;;;2.53;;
44588;SDS011;30298;52.562;13.414;2023-03-01T13:27:08;4.50;;;3.03;;
44588;SDS011;30298;52.562;13.414;2023-03-01T13:29:56;4.00;;;2.60;;
44588;SDS011;30298;52.562;13.414;2023-03-01T13:34:53;4.63;;;2.73;;
44588;SDS011;30298;52.562;13.414;2023-03-01T13:37:23;7.53;;;2.70;;
44588;SDS011;30298;52.562;13.414;2023-03-01T13:39:51;6.13;;;2.92;;
44588;SDS011;30298;52.562;13.414;2023-03-01T13:45:02;5.20;;;2.85;;
44588;SDS011;30298;52.562;13.414;2023-03-01T13:47:28;6.68;;;2.67;;
44588;SDS011;30298;52.562;13.414;2023-03-01T13:49:58;6.85;;;3.17;;
44588;SDS011;30298;52.562;13.414;2023-03-01T13:57:47;5.78;;;3.47;;
44588;SDS011;30298;52.562;13.414;2023-03-01T14:00:38;7.70;;;2.72;;
44588;SDS011;30298;52.562;13.414;2023-03-01T14:03:14;8.07;;;3.20;;
44588;SDS011;30298;52.562;13.414;2023-03-01T14:05:40;8.70;;;3.85;;
44588;SDS011;30298;52.562;13.414;2023-03-01T14:10:34;7.60;;;2.57;;
44588;SDS011;30298;52.562;13.414;2023-03-01T14:13:05;5.32;;;2.65;;
44588;SDS011;30298;52.562;13.414;2023-03-01T14:15:39;4.70;;;2.80;;
44588;SDS011;30298;52.562;13.414;2023-03-01T14:18:12;6.80;;;2.95;;
44588;SDS011;30298;52.562;13.414;2023-03-01T14:20:41;4.05;;;2.40;;
44588;SDS011;30298;52.562;13.414;2023-03-01T14:23:14;7.47;;;2.83;;
44588;SDS011;30298;52.562;13.414;2023-03-01T14:25:46;9.73;;;2.60;;
44588;SDS011;30298;52.562;13.414;2023-03-01T14:28:23;5.95;;;3.40;;
44588;SDS011;30298;52.562;13.414;2023-03-01T14:30:51;4.57;;;2.60;;
44588;SDS011;30298;52.562;13.414;2023-03-01T14:33:35;5.10;;;3.13;;
44588;SDS011;30298;52.562;13.414;2023-03-01T14:36:09;4.97;;;2.65;;
44588;SDS011;30298;52.562;13.414;2023-03-01T14:38:39;6.13;;;2.72;;
44588;SDS011;30298;52.562;13.414;2023-03-01T14:41:05;5.15;;;3.25;;
44588;SDS011;30298;52.562;13.414;2023-03-01T14:43:32;4.07;;;2.88;;
44588;SDS011;30298;52.562;13.414;2023-03-01T14:45:58;5.47;;;2.85;;
44588;SDS011;30298;52.562;13.414;2023-03-01T14:48:24;7.18;;;3.30;;
44588;SDS011;30298;52.562;13.414;2023-03-01T14:50:49;6.10;;;2.97;;
44588;SDS011;30298;52.562;13.414;2023-03-01T14:53:23;7.75;;;2.95;;
44588;SDS011;30298;52.562;13.414;2023-03-01T14:55:50;5.80;;;3.00;;
44588;SDS011;30298;52.562;13.414;2023-03-01T14:58:21;11.98;;;3.35;;
44588;SDS011;30298;52.562;13.414;2023-03-01T15:03:26;6.05;;;3.38;;
44588;SDS011;30298;52.562;13.414;2023-03-01T15:05:52;9.07;;;2.95;;
44588;SDS011;30298;52.562;13.414;2023-03-01T15:08:22;9.82;;;2.88;;
44588;SDS011;30298;52.562;13.414;2023-03-01T15:13:24;4.80;;;2.65;;
44588;SDS011;30298;52.562;13.414;2023-03-01T15:15:50;5.85;;;3.35;;
44588;SDS011;30298;52.562;13.414;2023-03-01T15:18:26;7.18;;;4.18;;
44588;SDS011;30298;52.562;13.414;2023-03-01T15:20:51;7.00;;;3.33;;
44588;SDS011;30298;52.562;13.414;2023-03-01T15:25:43;5.30;;;2.90;;
44588;SDS011;30298;52.562;13.414;2023-03-01T15:28:12;10.10;;;3.55;;
44588;SDS011;30298;52.562;13.414;2023-03-01T15:30:42;8.63;;;3.20;;
44588;SDS011;30298;52.562;13.414;2023-03-01T15:35:44;6.75;;;3.50;;
44588;SDS011;30298;52.562;13.414;2023-03-01T15:40:53;5.30;;;3.40;;
44588;SDS011;30298;52.562;13.414;2023-03-01T15:46:02;6.40;;;3.47;;
44588;SDS011;30298;52.562;13.414;2023-03-01T15:48:28;10.20;;;3.83;;
44588;SDS011;30298;52.562;13.414;2023-03-01T15:50:54;6.33;;;4.17;;
44588;SDS011;30298;52.562;13.414;2023-03-01T15:53:19;7.75;;;3.40;;
44588;SDS011;30298;52.562;13.414;2023-03-01T15:55:44;7.90;;;3.23;;
44588;SDS011;30298;52.562;13.414;2023-03-01T15:58:12;6.78;;;3.47;;
44588;SDS011;30298;52.562;13.414;2023-03-01T16:00:38;8.23;;;3.40;;
44588;SDS011;30298;52.562;13.414;2023-03-01T16:03:04;5.70;;;3.88;;
44588;SDS011;30298;52.562;13.414;2023-03-01T16:05:30;8.53;;;3.30;;
44588;SDS011;30298;52.562;13.414;2023-03-01T16:07:56;6.55;;;3.83;;
44588;SDS011;30298;52.562;13.414;2023-03-01T16:10:22;6.95;;;3.35;;
44588;SDS011;30298;52.562;13.414;2023-03-01T16:12:47;10.73;;;5.95;;
44588;SDS011;30298;52.562;13.414;2023-03-01T16:15:20;11.97;;;5.97;;
44588;SDS011;30298;52.562;13.414;2023-03-01T16:17:45;5.78;;;3.30;;
44588;SDS011;30298;52.562;13.414;2023-03-01T16:20:11;9.25;;;3.35;;
44588;SDS011;30298;52.562;13.414;2023-03-01T16:22:37;7.28;;;4.05;;
44588;SDS011;30298;52.562;13.414;2023-03-01T16:25:02;9.63;;;4.23;;
44588;SDS011;30298;52.562;13.414;2023-03-01T16:27:28;7.53;;;3.75;;
44588;SDS011;30298;52.562;13.414;2023-03-01T16:29:53;8.88;;;3.45;;
44588;SDS011;30298;52.562;13.414;2023-03-01T16:32:18;8.80;;;3.70;;